createdAt,value
2018-01-21T00:00:44.497Z,21.64
2018-01-21T00:03:12.076Z,21.65
2018-01-21T00:05:39.619Z,21.65
2018-01-21T00:08:07.241Z,21.65
2018-01-21T00:10:34.793Z,21.65
2018-01-21T00:13:02.405Z,21.65
2018-01-21T00:15:30.885Z,21.66
2018-01-21T00:17:58.427Z,21.65
2018-01-21T00:20:25.975Z,21.66
2018-01-21T00:22:53.457Z,21.64
2018-01-21T00:25:20.937Z,21.65
2018-01-21T00:27:48.482Z,21.66
2018-01-21T00:30:15.967Z,21.67
2018-01-21T00:32:43.449Z,21.66
2018-01-21T00:35:10.997Z,21.65
2018-01-21T00:37:38.473Z,21.65
2018-01-21T00:40:06.026Z,21.64
2018-01-21T00:42:33.572Z,21.66
2018-01-21T00:45:01.145Z,21.63
2018-01-21T00:47:28.764Z,21.65
2018-01-21T00:49:56.253Z,21.65
2018-01-21T00:52:23.816Z,21.67
2018-01-21T00:54:51.361Z,21.68
2018-01-21T00:57:18.833Z,21.69
2018-01-21T00:59:46.375Z,21.69
2018-01-21T01:02:13.919Z,21.67
2018-01-21T01:04:41.479Z,21.65
2018-01-21T01:07:08.956Z,21.64
2018-01-21T01:09:36.433Z,21.64
2018-01-21T01:12:03.976Z,21.63
2018-01-21T01:14:31.598Z,21.62
2018-01-21T01:16:59.070Z,21.61
2018-01-21T01:19:26.553Z,21.61
2018-01-21T01:21:54.163Z,21.62
2018-01-21T01:24:21.641Z,21.63
2018-01-21T01:26:49.229Z,21.64
2018-01-21T01:29:16.792Z,21.64
2018-01-21T01:31:44.265Z,21.64
2018-01-21T01:34:11.802Z,21.64
2018-01-21T01:36:39.338Z,21.64
2018-01-21T01:39:06.890Z,21.62
2018-01-21T01:41:34.509Z,21.62
2018-01-21T01:44:01.985Z,21.62
2018-01-21T01:46:29.609Z,21.61
2018-01-21T01:48:57.179Z,21.62
2018-01-21T01:51:24.719Z,21.61
2018-01-21T01:53:52.267Z,21.61
2018-01-21T01:56:19.833Z,21.63
2018-01-21T01:58:47.379Z,21.63
2018-01-21T02:01:14.922Z,21.65
2018-01-21T02:03:42.468Z,21.66
2018-01-21T02:06:09.994Z,21.67
2018-01-21T02:08:37.524Z,21.66
2018-01-21T02:11:05.080Z,21.64
2018-01-21T02:13:32.710Z,21.62
2018-01-21T02:16:00.250Z,21.60
2018-01-21T02:18:27.736Z,21.57
2018-01-21T02:20:55.223Z,21.54
2018-01-21T02:23:22.703Z,21.51
2018-01-21T02:25:50.317Z,21.48
2018-01-21T02:28:17.937Z,21.45
2018-01-21T02:30:45.553Z,21.38
2018-01-21T02:33:13.107Z,21.37
2018-01-21T02:35:40.717Z,21.37
2018-01-21T02:38:08.226Z,21.38
2018-01-21T02:40:35.849Z,21.39
2018-01-21T02:43:03.432Z,21.40
2018-01-21T02:45:31.048Z,21.43
2018-01-21T02:47:58.702Z,21.43
2018-01-21T02:50:26.349Z,21.46
2018-01-21T02:52:53.829Z,21.46
2018-01-21T02:55:21.456Z,21.48
2018-01-21T02:57:49.077Z,21.48
2018-01-21T03:00:16.623Z,21.47
2018-01-21T03:02:44.248Z,21.46
2018-01-21T03:05:11.877Z,21.48
2018-01-21T03:07:39.509Z,21.48
2018-01-21T03:10:07.095Z,21.46
2018-01-21T03:12:34.685Z,21.48
2018-01-21T03:15:02.347Z,21.48
2018-01-21T03:17:29.960Z,21.48
2018-01-21T03:19:57.573Z,21.49
2018-01-21T03:22:25.123Z,21.48
2018-01-21T03:24:52.597Z,21.48
2018-01-21T03:27:20.134Z,21.49
2018-01-21T03:29:47.608Z,21.50
2018-01-21T03:32:15.085Z,21.50
2018-01-21T03:34:42.637Z,21.51
2018-01-21T03:37:10.244Z,21.52
2018-01-21T03:39:37.721Z,21.53
2018-01-21T03:42:05.245Z,21.54
2018-01-21T03:44:32.786Z,21.51
2018-01-21T03:47:00.441Z,21.51
2018-01-21T03:49:27.917Z,21.51
2018-01-21T03:51:55.413Z,21.50
2018-01-21T03:54:22.980Z,21.50
2018-01-21T03:56:50.538Z,21.49
2018-01-21T03:59:18.074Z,21.49
2018-01-21T04:01:45.549Z,21.44
2018-01-21T04:04:13.094Z,21.47
2018-01-21T04:06:40.646Z,21.48
2018-01-21T04:09:08.197Z,21.47
2018-01-21T04:11:35.738Z,21.47
2018-01-21T04:14:03.313Z,21.47
2018-01-21T04:16:30.866Z,21.47
2018-01-21T04:18:58.488Z,21.47
2018-01-21T04:21:25.961Z,21.48
2018-01-21T04:23:53.511Z,21.48
2018-01-21T04:26:21.017Z,21.48
2018-01-21T04:28:48.638Z,21.48
2018-01-21T04:31:16.187Z,21.47
2018-01-21T04:33:43.657Z,21.50
2018-01-21T04:36:11.209Z,21.49
2018-01-21T04:38:38.761Z,21.47
2018-01-21T04:41:06.296Z,21.46
2018-01-21T04:43:33.840Z,21.47
2018-01-21T04:46:01.391Z,21.47
2018-01-21T04:48:29.007Z,21.46
2018-01-21T04:50:56.547Z,21.47
2018-01-21T04:53:24.021Z,21.45
2018-01-21T04:55:51.569Z,21.46
2018-01-21T04:58:19.115Z,21.46
2018-01-21T05:00:46.661Z,21.45
2018-01-21T05:03:14.207Z,21.45
2018-01-21T05:05:41.752Z,21.44
2018-01-21T05:08:09.305Z,21.46
2018-01-21T05:10:36.920Z,21.47
2018-01-21T05:13:04.541Z,21.48
2018-01-21T05:15:32.161Z,21.48
2018-01-21T05:17:59.783Z,21.50
2018-01-21T05:20:27.342Z,21.48
2018-01-21T05:22:54.889Z,21.48
2018-01-21T05:25:22.363Z,21.46
2018-01-21T05:27:50.214Z,21.47
2018-01-21T05:30:17.759Z,21.48
2018-01-21T05:32:45.237Z,21.50
2018-01-21T05:35:12.781Z,21.52
2018-01-21T05:37:40.359Z,21.52
2018-01-21T05:40:07.898Z,21.54
2018-01-21T05:42:35.476Z,21.55
2018-01-21T05:45:03.096Z,21.55
2018-01-21T05:47:30.651Z,21.56
2018-01-21T05:49:58.140Z,21.56
2018-01-21T05:52:25.773Z,21.58
2018-01-21T05:54:53.425Z,21.60
2018-01-21T05:57:20.971Z,21.61
2018-01-21T05:59:48.518Z,21.61
2018-01-21T06:02:16.058Z,21.61
2018-01-21T06:04:43.611Z,21.61
2018-01-21T06:07:11.175Z,21.62
2018-01-21T06:09:38.768Z,21.62
2018-01-21T06:12:06.423Z,21.63
2018-01-21T06:14:33.968Z,21.63
2018-01-21T06:17:01.538Z,21.63
2018-01-21T06:19:29.371Z,21.63
2018-01-21T06:21:57.134Z,21.65
2018-01-21T06:24:24.613Z,21.68
2018-01-21T06:26:52.166Z,21.69
2018-01-21T06:29:19.742Z,21.68
2018-01-21T06:31:47.300Z,21.69
2018-01-21T06:34:15.032Z,21.69
2018-01-21T06:36:42.602Z,21.68
2018-01-21T06:39:10.159Z,21.71
2018-01-21T06:41:38.324Z,21.72
2018-01-21T06:44:06.708Z,21.74
2018-01-21T06:46:34.274Z,21.78
2018-01-21T06:49:01.834Z,21.81
2018-01-21T06:51:29.393Z,21.85
2018-01-21T06:53:57.756Z,21.88
2018-01-21T06:56:25.520Z,21.91
2018-01-21T06:58:53.010Z,21.95
2018-01-21T07:01:20.504Z,21.95
2018-01-21T07:03:48.310Z,21.97
2018-01-21T07:06:15.797Z,21.96
2018-01-21T07:08:43.381Z,21.99
2018-01-21T07:11:10.930Z,21.99
2018-01-21T07:13:38.553Z,22.01
2018-01-21T07:16:06.045Z,22.04
2018-01-21T07:18:33.533Z,22.07
2018-01-21T07:21:01.177Z,22.11
2018-01-21T07:23:28.797Z,22.17
2018-01-21T07:25:56.493Z,22.23
2018-01-21T07:28:24.121Z,22.28
2018-01-21T07:30:51.776Z,22.30
2018-01-21T07:33:19.331Z,22.29
2018-01-21T07:35:46.896Z,22.31
2018-01-21T07:38:14.461Z,22.33
2018-01-21T07:40:42.019Z,22.33
2018-01-21T07:43:09.506Z,22.34
2018-01-21T07:45:37.071Z,22.36
2018-01-21T07:48:04.637Z,22.38
2018-01-21T07:50:32.219Z,22.40
2018-01-21T07:52:59.770Z,22.43
2018-01-21T07:55:27.414Z,22.43
2018-01-21T07:57:54.901Z,22.47
2018-01-21T08:00:22.451Z,22.47
2018-01-21T08:02:50.006Z,22.46
2018-01-21T08:05:17.494Z,22.44
2018-01-21T08:07:45.048Z,22.44
2018-01-21T08:10:12.756Z,22.42
2018-01-21T08:12:40.322Z,22.47
2018-01-21T08:15:08.041Z,22.44
2018-01-21T08:17:35.736Z,22.49
2018-01-21T08:20:03.495Z,22.53
2018-01-21T08:22:31.080Z,22.55
2018-01-21T08:24:58.565Z,22.50
2018-01-21T08:27:26.185Z,22.44
2018-01-21T08:29:54.036Z,22.45
2018-01-21T08:32:21.613Z,22.41
2018-01-21T08:34:54.631Z,22.38
2018-01-21T08:37:27.818Z,22.36
2018-01-21T08:40:00.787Z,22.33
2018-01-21T08:42:38.284Z,22.32
2018-01-21T08:45:05.854Z,22.26
2018-01-21T08:47:33.540Z,22.25
2018-01-21T08:50:01.025Z,22.23
2018-01-21T08:52:28.677Z,22.20
2018-01-21T08:54:56.341Z,22.20
2018-01-21T08:57:23.977Z,22.21
2018-01-21T08:59:51.600Z,22.21
2018-01-21T09:02:19.222Z,22.21
2018-01-21T09:04:46.857Z,22.25
2018-01-21T09:07:14.510Z,22.25
2018-01-21T09:09:42.011Z,22.28
2018-01-21T09:12:09.567Z,22.33
2018-01-21T09:14:37.202Z,22.36
2018-01-21T09:17:04.888Z,22.39
2018-01-21T09:19:32.565Z,22.43
2018-01-21T09:22:01.894Z,22.45
2018-01-21T09:24:29.399Z,22.42
2018-01-21T09:26:57.063Z,22.39
2018-01-21T09:29:24.729Z,22.41
2018-01-21T09:31:52.230Z,22.41
2018-01-21T09:34:19.783Z,22.42
2018-01-21T09:36:47.458Z,22.42
2018-01-21T09:39:15.109Z,22.39
2018-01-21T09:41:42.737Z,22.37
2018-01-21T09:44:10.231Z,22.37
2018-01-21T09:46:37.778Z,22.36
2018-01-21T09:49:05.311Z,22.36
2018-01-21T09:51:32.879Z,22.33
2018-01-21T09:54:00.439Z,22.31
2018-01-21T09:56:28.029Z,22.28
2018-01-21T09:58:55.688Z,22.25
2018-01-21T10:01:23.256Z,22.24
2018-01-21T10:03:50.823Z,22.21
2018-01-21T10:06:18.317Z,22.21
2018-01-21T10:08:45.895Z,22.20
2018-01-21T10:11:13.547Z,22.20
2018-01-21T10:13:41.124Z,22.19
2018-01-21T10:16:08.755Z,22.18
2018-01-21T10:18:36.393Z,22.18
2018-01-21T10:21:03.959Z,22.17
2018-01-21T10:23:31.541Z,22.16
2018-01-21T10:25:59.102Z,22.14
2018-01-21T10:28:26.662Z,22.14
2018-01-21T10:30:54.289Z,22.14
2018-01-21T10:33:21.860Z,22.13
2018-01-21T10:35:49.385Z,22.16
2018-01-21T10:38:16.958Z,22.17
2018-01-21T10:40:44.451Z,22.19
2018-01-21T10:43:12.040Z,22.21
2018-01-21T10:45:39.615Z,22.23
2018-01-21T10:48:07.101Z,22.24
2018-01-21T10:50:34.674Z,22.26
2018-01-21T10:53:02.230Z,22.29
2018-01-21T10:55:29.795Z,22.30
2018-01-21T10:57:57.366Z,22.30
2018-01-21T11:00:24.947Z,22.32
2018-01-21T11:02:52.510Z,22.32
2018-01-21T11:05:20.115Z,22.33
2018-01-21T11:07:47.662Z,22.31
2018-01-21T11:10:15.220Z,22.33
2018-01-21T11:12:42.854Z,22.32
2018-01-21T11:15:10.489Z,22.30
2018-01-21T11:17:38.155Z,22.31
2018-01-21T11:20:05.713Z,22.30
2018-01-21T11:22:33.344Z,22.30
2018-01-21T11:25:00.838Z,22.28
2018-01-21T11:27:28.489Z,22.26
2018-01-21T11:29:56.117Z,22.26
2018-01-21T11:32:23.742Z,22.24
2018-01-21T11:34:51.322Z,22.25
2018-01-21T11:37:18.874Z,22.22
2018-01-21T11:39:46.508Z,22.26
2018-01-21T11:42:14.068Z,22.26
2018-01-21T11:44:41.627Z,22.27
2018-01-21T11:47:10.801Z,22.27
2018-01-21T11:49:36.861Z,22.31
2018-01-21T11:52:04.428Z,22.31
2018-01-21T11:54:32.053Z,22.32
2018-01-21T11:56:59.551Z,22.35
2018-01-21T11:59:27.173Z,22.35
2018-01-21T12:01:54.726Z,22.33
2018-01-21T12:04:22.237Z,22.32
2018-01-21T12:06:49.743Z,22.29
2018-01-21T12:09:17.298Z,22.28
2018-01-21T12:11:44.863Z,22.28
2018-01-21T12:14:12.394Z,22.27
2018-01-21T12:16:39.959Z,22.26
2018-01-21T12:19:07.742Z,22.24
2018-01-21T12:21:35.249Z,22.27
2018-01-21T12:24:02.800Z,22.31
2018-01-21T12:26:30.423Z,22.42
2018-01-21T12:28:57.988Z,22.51
2018-01-21T12:31:25.563Z,22.57
2018-01-21T12:33:53.057Z,22.61
2018-01-21T12:36:20.621Z,22.63
2018-01-21T12:38:48.368Z,22.67
2018-01-21T12:41:15.940Z,22.70
2018-01-21T12:43:46.488Z,22.76
2018-01-21T12:46:14.039Z,22.79
2018-01-21T12:48:41.610Z,22.83
2018-01-21T12:51:09.200Z,22.85
2018-01-21T12:53:36.766Z,22.86
2018-01-21T12:56:04.250Z,22.87
2018-01-21T12:58:32.966Z,22.88
2018-01-21T13:01:00.459Z,22.91
2018-01-21T13:03:28.108Z,22.92
2018-01-21T13:05:56.002Z,22.85
2018-01-21T13:08:24.457Z,22.93
2018-01-21T13:10:52.089Z,22.92
2018-01-21T13:13:19.714Z,22.91
2018-01-21T13:15:47.307Z,22.91
2018-01-21T13:18:14.887Z,22.90
2018-01-21T13:21:01.925Z,22.90
2018-01-21T13:23:29.417Z,22.89
2018-01-21T13:25:56.974Z,22.88
2018-01-21T13:28:24.544Z,22.88
2018-01-21T13:30:52.039Z,22.86
2018-01-21T13:33:19.606Z,22.83
2018-01-21T13:35:47.141Z,22.80
2018-01-21T13:38:14.711Z,22.77
2018-01-21T13:40:42.283Z,22.75
2018-01-21T13:43:09.906Z,22.71
2018-01-21T13:45:37.462Z,22.69
2018-01-21T13:48:05.023Z,22.66
2018-01-21T13:50:32.580Z,22.64
2018-01-21T13:53:00.133Z,22.62
2018-01-21T13:55:27.613Z,22.58
2018-01-21T13:57:55.297Z,22.56
2018-01-21T14:00:22.881Z,22.55
2018-01-21T14:02:50.440Z,22.53
2018-01-21T14:05:18.118Z,22.51
2018-01-21T14:07:45.687Z,22.50
2018-01-21T14:10:13.185Z,22.47
2018-01-21T14:12:41.918Z,22.47
2018-01-21T14:15:09.523Z,22.45
2018-01-21T14:17:39.904Z,22.41
2018-01-21T14:20:09.779Z,22.39
2018-01-21T14:22:37.336Z,22.36
2018-01-21T14:25:08.187Z,22.32
2018-01-21T14:27:35.782Z,22.28
2018-01-21T14:30:03.335Z,22.25
2018-01-21T14:32:30.913Z,22.24
2018-01-21T14:34:59.409Z,22.23
2018-01-21T14:37:26.905Z,22.23
2018-01-21T14:39:54.530Z,22.22
2018-01-21T14:42:22.017Z,22.22
2018-01-21T14:44:49.653Z,22.23
2018-01-21T14:47:17.217Z,22.26
2018-01-21T14:49:44.775Z,22.27
2018-01-21T14:52:12.338Z,22.27
2018-01-21T14:54:39.850Z,22.27
2018-01-21T14:57:07.350Z,22.26
2018-01-21T14:59:34.853Z,22.27
2018-01-21T15:02:02.337Z,22.27
2018-01-21T15:04:29.965Z,22.31
2018-01-21T15:06:57.531Z,22.31
2018-01-21T15:09:25.157Z,22.34
2018-01-21T15:11:52.690Z,22.37
2018-01-21T15:14:20.244Z,22.37
2018-01-21T15:16:47.798Z,22.36
2018-01-21T15:19:15.350Z,22.35
2018-01-21T15:21:42.993Z,22.33
2018-01-21T15:24:10.493Z,22.32
2018-01-21T15:26:38.053Z,22.31
2018-01-21T15:29:05.682Z,22.30
2018-01-21T15:31:33.177Z,22.32
2018-01-21T15:34:00.805Z,22.29
2018-01-21T15:36:28.302Z,22.32
2018-01-21T15:38:55.927Z,22.33
2018-01-21T15:41:23.557Z,22.34
2018-01-21T15:43:51.113Z,22.34
2018-01-21T15:46:18.679Z,22.34
2018-01-21T15:48:46.250Z,22.35
2018-01-21T15:51:13.869Z,22.36
2018-01-21T15:53:41.432Z,22.38
2018-01-21T15:56:08.995Z,22.37
2018-01-21T15:58:36.557Z,22.36
2018-01-21T16:01:04.549Z,22.36
2018-01-21T16:03:32.177Z,22.36
2018-01-21T16:05:59.756Z,22.34
2018-01-21T16:08:28.135Z,22.34
2018-01-21T16:10:55.744Z,22.33
2018-01-21T16:13:23.414Z,22.35
2018-01-21T16:15:55.810Z,22.37
2018-01-21T16:18:30.385Z,22.38
2018-01-21T16:27:08.505Z,22.35
2018-01-21T16:29:36.064Z,22.34
2018-01-21T16:32:11.298Z,22.31
2018-01-21T16:34:41.581Z,22.29
2018-01-21T16:37:14.902Z,22.28
2018-01-21T16:39:42.536Z,22.28
2018-01-21T16:42:10.158Z,22.28
2018-01-21T16:44:38.917Z,22.30
2018-01-21T16:47:07.602Z,22.33
2018-01-21T16:49:35.181Z,22.37
2018-01-21T16:52:02.750Z,22.38
2018-01-21T16:54:30.333Z,22.41
2018-01-21T16:56:57.870Z,22.42
2018-01-21T16:59:25.502Z,22.44
2018-01-21T17:01:53.138Z,22.47
2018-01-21T17:04:20.763Z,22.48
2018-01-21T17:06:48.431Z,22.49
2018-01-21T18:37:13.122Z,21.88
2018-01-21T18:39:40.794Z,21.68
2018-01-21T18:42:08.290Z,21.04
2018-01-21T18:44:35.938Z,21.01
2018-01-21T18:47:03.513Z,21.02
2018-01-21T18:49:31.117Z,21.02
2018-01-21T18:51:58.617Z,21.07
2018-01-21T18:54:26.276Z,21.14
2018-01-21T18:56:53.855Z,21.21
2018-01-21T18:59:21.540Z,21.30
2018-01-21T19:01:49.590Z,21.40
2018-01-21T19:04:17.218Z,21.49
2018-01-21T19:06:44.845Z,21.56
2018-01-21T19:09:12.377Z,21.61
2018-01-21T19:11:39.948Z,21.63
2018-01-21T19:14:07.598Z,21.67
2018-01-21T19:16:35.163Z,21.68
2018-01-21T19:19:02.742Z,21.70
2018-01-21T19:21:30.315Z,21.71
2018-01-21T19:23:58.003Z,21.74
2018-01-21T19:26:25.658Z,21.78
2018-01-21T19:28:53.320Z,21.83
2018-01-21T19:31:20.871Z,21.83
2018-01-21T19:33:48.425Z,21.86
2018-01-21T19:36:15.995Z,21.87
2018-01-21T19:39:01.227Z,21.87
2018-01-21T19:41:28.795Z,21.91
2018-01-21T19:44:11.917Z,21.93
2018-01-21T19:46:39.479Z,21.93
2018-01-21T19:49:07.114Z,21.94
2018-01-21T19:51:34.601Z,21.96
2018-01-21T19:54:02.096Z,21.97
2018-01-21T19:56:29.789Z,21.98
2018-01-21T19:58:57.417Z,21.97
2018-01-21T20:01:25.057Z,21.97
2018-01-21T20:03:52.555Z,21.97
2018-01-21T20:06:20.069Z,21.98
2018-01-21T20:08:47.564Z,21.97
2018-01-21T20:11:15.119Z,21.96
2018-01-21T20:13:42.741Z,21.95
2018-01-21T20:16:10.232Z,21.95
2018-01-21T20:18:37.815Z,21.95
2018-01-21T20:21:05.437Z,21.94
2018-01-21T20:23:32.989Z,21.95
2018-01-21T20:26:00.552Z,21.93
2018-01-21T20:28:28.049Z,21.94
2018-01-21T20:30:55.622Z,21.94
2018-01-21T20:33:23.207Z,21.89
2018-01-21T20:35:50.830Z,21.95
2018-01-21T20:38:18.392Z,21.94
2018-01-21T20:40:46.186Z,21.95
2018-01-21T20:43:13.703Z,21.97
2018-01-21T20:45:41.345Z,21.98
2018-01-21T20:48:08.982Z,21.98
2018-01-21T20:50:36.658Z,21.95
2018-01-21T20:56:05.395Z,21.95
2018-01-21T20:58:32.892Z,21.97
2018-01-21T21:01:00.446Z,21.97
2018-01-21T21:03:28.038Z,21.99
2018-01-21T21:05:55.529Z,22.00
2018-01-21T21:08:23.041Z,22.02
2018-01-21T21:10:50.606Z,22.02
2018-01-21T21:13:18.179Z,22.04
2018-01-21T21:15:46.645Z,22.03
2018-01-21T21:18:14.994Z,21.99
2018-01-21T21:20:42.594Z,22.00
2018-01-21T21:23:10.163Z,22.00
2018-01-21T21:25:37.720Z,22.02
2018-01-21T21:28:05.353Z,22.02
2018-01-21T21:30:32.992Z,22.01
2018-01-21T21:33:01.420Z,22.02
2018-01-21T21:35:28.984Z,22.03
2018-01-21T21:37:56.571Z,22.03
2018-01-21T21:40:24.222Z,22.02
2018-01-21T21:42:51.780Z,22.00
2018-01-21T21:45:20.896Z,22.00
2018-01-21T21:47:50.542Z,21.99
2018-01-21T21:50:18.171Z,21.99
2018-01-21T21:52:45.730Z,22.00
2018-01-21T21:55:18.465Z,21.99
2018-01-21T21:57:46.095Z,21.97
2018-01-21T22:00:13.662Z,21.96
2018-01-21T22:02:41.157Z,21.96
2018-01-21T22:05:08.792Z,21.95
2018-01-21T22:07:41.824Z,21.94
2018-01-21T22:10:10.277Z,21.94
2018-01-21T22:12:37.781Z,21.92
2018-01-21T22:15:07.185Z,21.93
2018-01-21T22:17:34.813Z,21.92
2018-01-21T22:20:02.303Z,21.90
2018-01-21T22:22:30.029Z,21.89
2018-01-21T22:25:01.474Z,21.88
2018-01-21T22:27:28.973Z,21.87
2018-01-21T22:29:58.548Z,21.86
2018-01-21T22:32:26.031Z,21.86
2018-01-21T22:34:53.669Z,21.86
2018-01-21T22:37:21.222Z,21.86
2018-01-21T22:39:48.815Z,21.85
2018-01-21T22:42:16.450Z,21.84
2018-01-21T22:44:44.137Z,21.83
2018-01-21T22:47:11.892Z,21.81
2018-01-21T22:49:41.134Z,21.82
2018-01-21T22:52:08.773Z,21.81
2018-01-21T22:54:36.257Z,21.81
2018-01-21T22:57:03.878Z,21.81
2018-01-21T22:59:31.434Z,21.80
2018-01-21T23:01:58.917Z,21.81
2018-01-21T23:04:26.557Z,21.81
2018-01-21T23:06:54.201Z,21.79
2018-01-21T23:09:21.701Z,21.79
2018-01-21T23:11:49.252Z,21.79
2018-01-21T23:14:16.817Z,21.78
2018-01-21T23:16:44.366Z,21.76
2018-01-21T23:19:12.000Z,21.77
2018-01-21T23:21:39.558Z,21.76
2018-01-21T23:24:07.189Z,21.77
2018-01-21T23:26:34.690Z,21.76
2018-01-21T23:29:02.239Z,21.73
2018-01-21T23:31:29.736Z,21.71
2018-01-21T23:33:57.286Z,21.69
2018-01-21T23:36:24.843Z,21.66
2018-01-21T23:38:52.334Z,21.62
2018-01-21T23:41:19.884Z,21.58
2018-01-21T23:43:47.363Z,21.56
2018-01-21T23:46:14.986Z,21.55
2018-01-21T23:48:42.479Z,21.56
2018-01-21T23:51:09.956Z,21.56
2018-01-21T23:53:37.592Z,21.57
2018-01-21T23:56:05.205Z,21.58
2018-01-21T23:58:32.764Z,21.58
